Time;durP1;ratioP1;P1;durP2;ratioP2;P2;SDS_P1;SDS_P2;PMS_P1;PMS_P2;Temp;Humidity;BMP_temperature;BMP_pressure;BME280_temperature;BME280_humidity;BME280_pressure;Samples;Min_cycle;Max_cycle;Signal;HPM_P1;HPM_P2
2022/01/23 00:02:19;;;;;;;;;57.33;44.33;;;;;5.58;100.00;103254.59;5117841;27;45286;-79
2022/01/23 00:04:44;;;;;;;;;54.00;42.33;;;;;5.52;100.00;103259.91;5117467;27;45477;-81
2022/01/23 00:07:13;;;;;;;;;56.67;45.67;;;;;5.54;100.00;103265.16;5118249;27;44826;-80
2022/01/23 00:09:39;;;;;;;;;53.00;40.67;;;;;5.55;100.00;103264.28;5117430;27;45348;-80
2022/01/23 00:12:11;;;;;;;;;53.67;43.67;;;;;5.58;100.00;103259.00;5117230;27;44726;-81
2022/01/23 00:17:22;;;;;;;;;49.33;38.67;;;;;5.62;100.00;103260.75;5102270;27;45352;-81
2022/01/23 00:19:52;;;;;;;;;54.33;40.00;;;;;5.60;100.00;103260.72;5116985;27;45421;-79
2022/01/23 00:22:21;;;;;;;;;58.33;45.00;;;;;5.57;100.00;103262.53;5117760;27;44821;-81
2022/01/23 00:30:32;;;;;;;;;56.00;42.67;;;;;5.57;100.00;103254.63;5117542;27;45044;-81
2022/01/23 00:33:03;;;;;;;;;62.00;47.33;;;;;5.59;100.00;103243.16;5117278;27;44827;-80
2022/01/23 00:35:31;;;;;;;;;51.67;43.33;;;;;5.64;100.00;103254.56;5117223;27;44720;-80
2022/01/23 00:37:57;;;;;;;;;57.33;45.67;;;;;5.64;100.00;103251.91;5117716;27;44945;-79
2022/01/23 00:40:25;;;;;;;;;30.67;29.33;;;;;5.56;100.00;103242.28;5119901;27;45083;-81
2022/01/23 00:42:53;;;;;;;;;53.33;42.00;;;;;5.46;100.00;103252.03;5118285;27;44821;-81
2022/01/23 00:45:35;;;;;;;;;64.33;48.67;;;;;5.43;100.00;103246.78;5117788;27;45345;-81
2022/01/23 00:48:07;;;;;;;;;60.67;46.33;;;;;5.48;100.00;103247.63;5117077;27;44867;-80
2022/01/23 00:50:35;;;;;;;;;62.33;44.00;;;;;5.52;100.00;103236.19;5118250;27;45659;-80
2022/01/23 00:53:02;;;;;;;;;61.67;46.00;;;;;5.52;100.00;103235.31;5122085;27;45502;-81
2022/01/23 00:55:27;;;;;;;;;53.00;44.67;;;;;5.57;100.00;103237.03;5117939;27;45319;-80
2022/01/23 00:57:53;;;;;;;;;54.00;44.33;;;;;5.55;100.00;103243.19;5117454;27;45579;-79
2022/01/23 01:00:19;;;;;;;;;53.00;44.00;;;;;5.55;100.00;103232.66;5117089;27;45935;-80
2022/01/23 01:02:44;;;;;;;;;46.67;36.00;;;;;5.54;100.00;103230.91;5117382;27;45364;-81
2022/01/23 01:05:11;;;;;;;;;72.00;45.67;;;;;5.52;100.00;103230.03;5119235;27;45180;-81
2022/01/23 01:07:36;;;;;;;;;56.00;44.00;;;;;5.54;100.00;103233.53;5122343;27;44805;-80
2022/01/23 01:10:08;;;;;;;;;55.67;42.00;;;;;5.46;100.00;103225.66;5122613;27;45233;-79
2022/01/23 01:12:42;;;;;;;;;57.00;43.00;;;;;5.47;100.00;103229.19;5122665;27;45307;-80
2022/01/23 01:15:27;;;;;;;;;56.00;44.33;;;;;5.41;100.00;103236.25;5100014;27;44937;-80
2022/01/23 01:31:51;;;;;;;;;58.33;44.67;;;;;5.32;100.00;103231.03;5072778;28;45482;-80
2022/01/23 01:34:36;;;;;;;;;61.00;48.00;;;;;5.32;100.00;103231.03;5072131;28;44778;-81
2022/01/23 01:37:01;;;;;;;;;53.67;38.33;;;;;5.32;100.00;103224.88;5072565;28;45745;-80
2022/01/23 01:39:28;;;;;;;;;60.67;47.33;;;;;5.30;100.00;103221.34;5073243;28;45541;-80
2022/01/23 01:41:55;;;;;;;;;65.67;47.00;;;;;5.30;100.00;103222.22;5073192;28;46503;-80
2022/01/23 01:44:22;;;;;;;;;61.33;44.67;;;;;5.33;100.00;103224.88;5074376;28;45469;-79
2022/01/23 01:46:48;;;;;;;;;59.00;44.67;;;;;5.40;100.00;103218.66;5079250;27;44795;-80
2022/01/23 01:49:13;;;;;;;;;58.67;47.00;;;;;5.44;100.00;103216.88;5066001;28;45041;-80
2022/01/23 01:51:39;;;;;;;;;59.67;48.33;;;;;5.42;100.00;103218.69;5056518;28;45251;-79
2022/01/23 01:54:17;;;;;;;;;57.67;46.00;;;;;5.38;100.00;103215.16;5055959;28;44711;-79
2022/01/23 01:57:04;;;;;;;;;59.33;42.67;;;;;5.44;100.00;103221.28;5056539;28;45457;-80
2022/01/23 02:10:22;;;;;;;;;58.33;45.33;;;;;5.28;100.00;103220.50;5098806;27;44910;-79
2022/01/23 02:23:58;;;;;;;;;50.67;37.33;;;;;5.38;100.00;103214.31;5098830;27;45427;-79
2022/01/23 02:50:57;;;;;;;;;42.00;35.67;;;;;5.12;100.00;103191.56;5127485;27;44762;-80
2022/01/23 02:53:37;;;;;;;;;43.00;36.00;;;;;5.07;100.00;103187.19;5120026;27;44815;-81
2022/01/23 02:56:12;;;;;;;;;47.33;37.33;;;;;5.04;100.00;103187.25;5120426;27;45195;-82
2022/01/23 02:58:54;;;;;;;;;43.00;34.67;;;;;4.99;100.00;103176.72;5122829;27;44768;-81
2022/01/23 03:01:20;;;;;;;;;37.33;34.00;;;;;4.90;100.00;103169.72;5103250;27;44788;-80
2022/01/23 03:03:49;;;;;;;;;46.00;32.33;;;;;4.92;100.00;103179.38;5119805;27;45455;-80
2022/01/23 03:25:15;;;;;;;;;34.33;30.33;;;;;4.98;100.00;103168.81;5127256;27;44922;-80
2022/01/23 03:32:48;;;;;;;;;42.67;33.33;;;;;5.04;100.00;103174.06;5119005;27;45409;-80
2022/01/23 03:35:15;;;;;;;;;49.00;40.67;;;;;5.03;100.00;103160.03;5118752;27;45225;-80
2022/01/23 03:37:41;;;;;;;;;51.67;39.00;;;;;5.03;100.00;103170.56;5118314;27;45363;-82
2022/01/23 03:40:07;;;;;;;;;39.00;35.00;;;;;5.04;100.00;103164.41;5119001;27;44715;-81
2022/01/23 03:42:35;;;;;;;;;46.00;38.00;;;;;5.06;100.00;103156.47;5099253;27;44860;-80
2022/01/23 03:47:39;;;;;;;;;35.00;35.00;;;;;5.04;100.00;103158.25;5118162;27;45169;-80
2022/01/23 03:50:08;;;;;;;;;49.33;37.00;;;;;5.01;100.00;103153.00;5118318;27;45198;-80
2022/01/23 03:52:34;;;;;;;;;46.00;40.00;;;;;4.96;100.00;103153.03;5118319;27;45448;-80
2022/01/23 03:54:59;;;;;;;;;59.67;47.00;;;;;4.89;100.00;103161.84;5119558;27;44814;-80
2022/01/23 03:57:25;;;;;;;;;44.67;36.00;;;;;4.82;100.00;103157.47;5121990;27;45406;-81
2022/01/23 03:59:50;;;;;;;;;56.33;40.33;;;;;4.83;100.00;103154.81;5106878;27;44754;-81
2022/01/23 04:02:16;;;;;;;;;44.00;37.33;;;;;4.84;100.00;103153.09;5120535;27;44878;-81
2022/01/23 04:04:42;;;;;;;;;53.67;45.67;;;;;4.78;100.00;103153.97;5118619;27;44906;-79
2022/01/23 04:07:27;;;;;;;;;48.33;38.33;;;;;4.74;100.00;103152.25;5118925;27;45002;-80
2022/01/23 04:09:53;;;;;;;;;48.00;35.67;;;;;4.76;100.00;103147.84;5117203;27;44788;-81
2022/01/23 04:14:59;;;;;;;;;46.67;37.00;;;;;4.77;100.00;103139.06;5118065;27;45299;-81
2022/01/23 04:33:51;;;;;;;;;57.67;42.00;;;;;4.84;100.00;103143.44;5118494;27;45344;-82
2022/01/23 05:01:03;;;;;;;;;45.00;37.00;;;;;4.91;100.00;103144.25;5117170;27;45422;-80
2022/01/23 05:06:06;;;;;;;;;45.00;36.00;;;;;4.76;100.00;103158.38;5118244;27;44862;-81
2022/01/23 05:08:34;;;;;;;;;41.67;36.00;;;;;4.75;100.00;103155.75;5118194;27;44855;-81
2022/01/23 05:11:02;;;;;;;;;30.00;22.67;;;;;4.74;100.00;103153.97;5118690;27;45169;-80
2022/01/23 05:13:29;;;;;;;;;39.00;31.67;;;;;4.68;100.00;103159.28;5124291;27;44882;-80
2022/01/23 05:15:54;;;;;;;;;24.00;20.00;;;;;4.60;100.00;103152.28;5124330;27;44829;-81
2022/01/23 05:18:20;;;;;;;;;39.67;28.00;;;;;4.56;100.00;103158.44;5125663;27;45325;-80
2022/01/23 05:20:48;;;;;;;;;39.33;28.33;;;;;4.53;100.00;103162.84;5121855;27;45460;-80
2022/01/23 05:23:14;;;;;;;;;32.00;24.00;;;;;4.50;100.00;103165.50;5121096;27;44788;-81
2022/01/23 05:25:40;;;;;;;;;44.67;28.33;;;;;4.52;100.00;103158.44;5084456;27;45463;-81
2022/01/23 05:28:08;;;;;;;;;35.33;30.67;;;;;4.56;100.00;103168.09;5120640;27;45443;-81
2022/01/23 05:30:35;;;;;;;;;39.00;34.33;;;;;4.58;100.00;103167.19;5120496;27;45460;-81
2022/01/23 05:33:00;;;;;;;;;34.00;26.00;;;;;4.62;100.00;103165.44;5120221;27;44732;-81
2022/01/23 05:35:28;;;;;;;;;35.00;29.00;;;;;4.68;100.00;103165.41;5102171;27;45186;-81
2022/01/23 05:37:54;;;;;;;;;29.33;25.67;;;;;4.70;100.00;103161.03;5120653;27;44751;-81
2022/01/23 05:40:21;;;;;;;;;30.67;25.33;;;;;4.75;100.00;103168.91;5119892;27;45284;-80
2022/01/23 05:42:47;;;;;;;;;45.00;33.67;;;;;4.80;100.00;103160.13;5101511;27;45293;-81
2022/01/23 05:45:12;;;;;;;;;30.67;30.33;;;;;4.79;100.00;103155.75;5121268;27;45102;-81
2022/01/23 05:47:38;;;;;;;;;30.67;23.33;;;;;4.72;100.00;103163.66;5122784;27;45325;-82
2022/01/23 05:50:05;;;;;;;;;38.67;35.33;;;;;4.66;100.00;103161.91;5127766;27;45439;-80
2022/01/23 05:52:31;;;;;;;;;46.67;32.00;;;;;4.59;100.00;103166.34;5119634;27;45396;-82
2022/01/23 05:55:00;;;;;;;;;37.00;30.33;;;;;4.55;100.00;103168.97;5119862;27;45319;-81
2022/01/23 05:57:25;;;;;;;;;31.67;25.67;;;;;4.55;100.00;103168.97;5120238;27;45425;-81
2022/01/23 05:59:50;;;;;;;;;39.00;32.33;;;;;4.51;100.00;103165.47;5120095;27;45121;-81
2022/01/23 06:02:16;;;;;;;;;33.67;28.00;;;;;4.53;100.00;103165.47;5120081;27;45355;-82
2022/01/23 06:04:41;;;;;;;;;48.67;38.00;;;;;4.54;100.00;103168.06;5119956;27;44822;-82
2022/01/23 06:07:07;;;;;;;;;41.33;33.67;;;;;4.55;100.00;103174.25;5120307;27;44765;-82
2022/01/23 06:09:33;;;;;;;;;20.67;19.00;;;;;4.58;100.00;103172.47;5119492;27;46642;-81
2022/01/23 06:11:58;;;;;;;;;31.00;27.33;;;;;4.63;100.00;103177.72;5119942;27;44866;-81
2022/01/23 06:14:25;;;;;;;;;32.67;26.67;;;;;4.65;100.00;103173.34;5100892;27;44850;-80
2022/01/23 06:16:50;;;;;;;;;24.67;16.67;;;;;4.67;100.00;103173.31;5120122;27;45420;-81
2022/01/23 06:19:16;;;;;;;;;17.33;15.33;;;;;4.68;100.00;103178.56;5120083;27;45157;-81
2022/01/23 06:21:41;;;;;;;;;29.33;24.00;;;;;4.64;100.00;103168.94;5120224;27;45278;-81
2022/01/23 06:24:11;;;;;;;;;20.00;20.00;;;;;4.64;100.00;103172.47;5123443;27;45270;-82
2022/01/23 06:26:45;;;;;;;;;25.00;16.00;;;;;4.66;100.00;103168.94;5127705;27;45468;-81
2022/01/23 06:29:14;;;;;;;;;25.33;19.67;;;;;4.66;100.00;103168.94;5121153;27;45261;-81
2022/01/23 06:31:41;;;;;;;;;22.50;20.25;;;;;4.67;100.00;103160.16;5119268;27;45542;-81
2022/01/23 06:34:08;;;;;;;;;28.00;17.33;;;;;4.66;100.00;103167.19;5119021;27;44771;-81
2022/01/23 06:36:34;;;;;;;;;25.50;21.25;;;;;4.63;100.00;103170.69;5119565;27;45246;-81
2022/01/23 06:39:02;;;;;;;;;30.00;22.50;;;;;4.66;100.00;103176.84;5119338;27;45401;-82
2022/01/23 06:41:28;;;;;;;;;29.67;25.67;;;;;4.69;100.00;103166.28;5100174;27;45368;-81
2022/01/23 06:43:53;;;;;;;;;30.33;25.00;;;;;4.72;100.00;103166.28;5119804;27;44726;-82
2022/01/23 06:46:19;;;;;;;;;22.00;17.33;;;;;4.72;100.00;103164.53;5120426;27;45473;-82
2022/01/23 06:48:44;;;;;;;;;25.00;20.00;;;;;4.73;100.00;103168.91;5100762;27;45475;-80
2022/01/23 06:51:09;;;;;;;;;22.75;21.00;;;;;4.71;100.00;103162.78;5119056;27;45436;-82
2022/01/23 06:53:35;;;;;;;;;32.67;25.33;;;;;4.73;100.00;103163.63;5119356;27;44771;-82
2022/01/23 06:56:00;;;;;;;;;26.75;21.50;;;;;4.76;100.00;103158.38;5119753;27;45415;-82
2022/01/23 06:58:26;;;;;;;;;19.50;17.25;;;;;4.78;100.00;103169.75;5120361;27;45375;-81
2022/01/23 07:00:51;;;;;;;;;27.25;21.50;;;;;4.78;100.00;103171.53;5102140;27;44867;-81
2022/01/23 07:03:16;;;;;;;;;26.00;21.75;;;;;4.75;100.00;103169.78;5128728;27;44846;-83
2022/01/23 07:05:42;;;;;;;;;20.25;18.25;;;;;4.68;100.00;103173.31;5123949;27;45339;-82
2022/01/23 07:08:07;;;;;;;;;22.50;18.75;;;;;4.66;100.00;103182.97;5119764;27;45413;-81
2022/01/23 07:10:32;;;;;;;;;30.75;22.25;;;;;4.67;100.00;103187.38;5120027;27;44806;-83
2022/01/23 07:12:58;;;;;;;;;25.50;20.50;;;;;4.72;100.00;103188.22;5119671;27;44871;-82
2022/01/23 07:15:23;;;;;;;;;24.00;19.00;;;;;4.69;100.00;103180.34;5100903;27;45226;-80
2022/01/23 07:17:50;;;;;;;;;25.00;19.00;;;;;4.66;100.00;103182.13;5101039;27;45175;-81
2022/01/23 07:20:16;;;;;;;;;21.00;14.50;;;;;4.52;100.00;103182.13;5119076;27;44774;-81
2022/01/23 07:22:41;;;;;;;;;24.00;17.50;;;;;4.47;100.00;103181.28;5119134;27;44793;-82
2022/01/23 07:25:07;;;;;;;;;14.50;10.00;;;;;4.46;100.00;103184.78;5119060;27;45435;-81
2022/01/23 07:27:49;;;;;;;;;21.75;19.00;;;;;4.47;100.00;103182.16;5118632;27;45072;-81
2022/01/23 07:30:28;;;;;;;;;25.33;19.00;;;;;4.56;100.00;103184.75;5119161;27;45319;-81
2022/01/23 07:32:53;;;;;;;;;24.00;18.00;;;;;4.62;100.00;103183.88;5118415;27;44900;-82
2022/01/23 07:35:19;;;;;;;;;27.00;20.00;;;;;4.57;100.00;103175.97;5121930;27;44773;-83
2022/01/23 07:37:44;;;;;;;;;21.00;20.33;;;;;4.51;100.00;103181.28;5125944;27;45188;-80
2022/01/23 07:40:10;;;;;;;;;21.67;16.67;;;;;4.43;100.00;103182.16;5108322;27;44843;-82
2022/01/23 07:42:36;;;;;;;;;20.00;16.00;;;;;4.41;100.00;103168.13;5124000;27;45473;-82
2022/01/23 07:45:03;;;;;;;;;20.33;19.00;;;;;4.39;100.00;103179.53;5119117;27;44886;-81
2022/01/23 07:47:29;;;;;;;;;20.25;18.50;;;;;4.37;100.00;103175.16;5119162;27;45139;-82
2022/01/23 07:49:54;;;;;;;;;33.25;19.50;;;;;4.41;100.00;103171.66;5117989;27;44736;-80
2022/01/23 07:52:21;;;;;;;;;22.25;15.00;;;;;4.35;100.00;103176.91;5119090;27;44724;-83
2022/01/23 07:54:47;;;;;;;;;27.67;15.00;;;;;4.37;100.00;103172.53;5120690;27;44957;-84
2022/01/23 07:57:12;;;;;;;;;17.33;14.33;;;;;4.41;100.00;103170.78;5118579;27;45435;-84
2022/01/23 07:59:38;;;;;;;;;9.75;9.25;;;;;4.39;100.00;103179.53;5118217;27;45291;-82
2022/01/23 08:02:04;;;;;;;;;22.75;19.50;;;;;4.42;100.00;103183.03;5118047;27;45479;-81
2022/01/23 08:04:29;;;;;;;;;17.75;17.75;;;;;4.47;100.00;103197.06;5117971;27;44780;-82
2022/01/23 08:07:08;;;;;;;;;21.00;15.00;;;;;4.42;100.00;103197.06;5117745;27;45515;-82
2022/01/23 08:09:35;;;;;;;;;21.33;15.00;;;;;4.37;100.00;103209.38;5117680;27;44842;-83
2022/01/23 08:12:00;;;;;;;;;20.50;14.25;;;;;4.40;100.00;103198.84;5118167;27;44869;-82
2022/01/23 08:14:25;;;;;;;;;18.67;14.67;;;;;4.42;100.00;103212.88;5119526;27;44995;-82
2022/01/23 08:16:51;;;;;;;;;21.00;20.00;;;;;4.44;100.00;103219.00;5122272;27;45235;-82
2022/01/23 08:19:16;;;;;;;;;20.25;16.00;;;;;4.45;100.00;103211.97;5126487;27;45326;-81
2022/01/23 08:21:42;;;;;;;;;26.50;20.25;;;;;4.47;100.00;103213.72;5100441;27;44763;-82
2022/01/23 08:24:07;;;;;;;;;28.67;25.00;;;;;4.49;100.00;103216.34;5117798;27;44853;-82
2022/01/23 08:26:33;;;;;;;;;28.75;20.75;;;;;4.53;100.00;103218.09;5117774;27;45195;-82
2022/01/23 08:28:58;;;;;;;;;29.67;21.33;;;;;4.55;100.00;103219.88;5117493;27;45414;-82
2022/01/23 08:31:24;;;;;;;;;21.33;18.33;;;;;4.58;100.00;103217.22;5117700;27;45277;-82
2022/01/23 08:33:49;;;;;;;;;26.00;19.33;;;;;4.59;100.00;103218.09;5117161;27;44871;-82
2022/01/23 08:36:15;;;;;;;;;23.00;22.00;;;;;4.56;100.00;103204.94;5117317;27;45347;-84
2022/01/23 08:38:41;;;;;;;;;15.25;14.50;;;;;4.60;100.00;103207.56;5098665;27;44814;-83
2022/01/23 08:43:45;;;;;;;;;21.67;15.33;;;;;4.66;100.00;103225.09;5117695;27;44777;-83
2022/01/23 08:46:10;;;;;;;;;20.50;15.75;;;;;4.66;100.00;103214.56;5098100;27;47265;-82
2022/01/23 08:48:36;;;;;;;;;18.75;13.75;;;;;4.69;100.00;103217.22;5117161;27;44884;-83
2022/01/23 08:51:01;;;;;;;;;23.25;18.50;;;;;4.71;100.00;103218.06;5100008;27;44943;-82
2022/01/23 08:53:27;;;;;;;;;17.75;13.25;;;;;4.77;100.00;103212.78;5119750;27;44789;-82
2022/01/23 08:55:53;;;;;;;;;17.50;17.25;;;;;4.85;100.00;103215.41;5107159;27;46569;-85
2022/01/23 08:58:18;;;;;;;;;23.75;20.50;;;;;4.90;100.00;103213.63;5101414;27;45005;-82
2022/01/23 09:00:44;;;;;;;;;24.75;15.50;;;;;4.86;100.00;103214.50;5100300;27;44848;-83
2022/01/23 09:03:09;;;;;;;;;21.00;17.00;;;;;4.86;100.00;103218.03;5115785;27;44982;-84
2022/01/23 09:05:34;;;;;;;;;17.00;14.25;;;;;4.82;100.00;103215.41;5117391;27;45480;-83
2022/01/23 09:08:00;;;;;;;;;25.00;22.00;;;;;4.86;100.00;103214.50;5118200;27;45482;-84
2022/01/23 09:10:28;;;;;;;;;21.50;19.50;;;;;4.88;100.00;103220.63;5117086;27;45605;-83
2022/01/23 09:13:10;;;;;;;;;15.75;13.00;;;;;4.89;100.00;103225.06;5098922;27;45390;-83
2022/01/23 09:15:35;;;;;;;;;17.75;16.00;;;;;4.88;100.00;103218.91;5117963;27;45171;-83
2022/01/23 09:18:02;;;;;;;;;20.75;18.00;;;;;4.93;100.00;103212.72;5117244;27;44914;-82
2022/01/23 09:20:27;;;;;;;;;26.50;23.00;;;;;4.93;100.00;103218.88;5098780;27;44820;-84
2022/01/23 09:22:53;;;;;;;;;24.00;18.50;;;;;4.93;100.00;103220.63;5099919;27;45553;-82
2022/01/23 09:25:18;;;;;;;;;20.33;16.67;;;;;4.95;100.00;103224.16;5118022;27;45172;-84
2022/01/23 09:27:44;;;;;;;;;21.33;16.00;;;;;4.84;100.00;103217.16;5099868;27;45255;-84
2022/01/23 09:30:18;;;;;;;;;19.67;14.00;;;;;4.76;100.00;103225.97;5100499;27;45293;-82
2022/01/23 09:32:45;;;;;;;;;22.00;18.67;;;;;4.77;100.00;103231.22;5106407;27;44908;-84
2022/01/23 09:35:11;;;;;;;;;28.00;24.33;;;;;4.77;100.00;103227.72;5127900;27;45160;-82
2022/01/23 09:37:37;;;;;;;;;25.33;19.33;;;;;4.75;100.00;103234.75;5120705;27;44874;-83
2022/01/23 09:40:05;;;;;;;;;18.00;11.67;;;;;4.71;100.00;103228.59;5120618;27;45322;-84
2022/01/23 09:42:41;;;;;;;;;25.67;20.33;;;;;4.67;100.00;103231.25;5122037;27;45406;-81
2022/01/23 09:45:12;;;;;;;;;20.00;17.67;;;;;4.62;100.00;103236.53;5129519;27;45232;-84
2022/01/23 09:47:39;;;;;;;;;17.25;17.25;;;;;4.66;100.00;103233.00;5132303;27;44740;-82
2022/01/23 09:50:07;;;;;;;;;19.50;15.50;;;;;4.69;100.00;103229.47;5108986;27;44827;-82
2022/01/23 09:52:35;;;;;;;;;18.00;15.00;;;;;4.73;100.00;103225.97;5130602;27;45297;-83
2022/01/23 09:55:08;;;;;;;;;14.50;13.50;;;;;4.75;100.00;103217.19;5123974;27;45354;-83
2022/01/23 09:57:35;;;;;;;;;16.75;14.75;;;;;4.82;100.00;103220.66;5125766;27;44747;-83
2022/01/23 10:00:05;;;;;;;;;16.25;15.25;;;;;4.84;100.00;103218.94;5122577;27;44737;-84
2022/01/23 10:02:31;;;;;;;;;15.50;14.25;;;;;4.83;100.00;103223.28;5104284;27;45583;-85
2022/01/23 10:04:56;;;;;;;;;28.67;24.67;;;;;4.83;100.00;103223.28;5103936;27;46716;-85
2022/01/23 10:07:22;;;;;;;;;20.00;13.25;;;;;4.81;100.00;103221.56;5105322;27;45243;-83
2022/01/23 10:09:54;;;;;;;;;18.00;14.00;;;;;4.84;100.00;103225.06;5126975;27;45198;-84
2022/01/23 10:12:23;;;;;;;;;21.00;19.00;;;;;4.84;100.00;103226.81;5126710;27;44834;-84
2022/01/23 10:14:49;;;;;;;;;14.00;13.75;;;;;4.94;100.00;103232.94;5104505;27;47010;-84
2022/01/23 10:17:14;;;;;;;;;18.25;13.00;;;;;5.02;100.00;103234.63;5102449;27;44876;-84
2022/01/23 10:19:40;;;;;;;;;15.50;14.00;;;;;5.09;100.00;103230.25;5102939;27;45392;-84
2022/01/23 10:22:12;;;;;;;;;23.00;14.25;;;;;4.98;100.00;103227.66;5101453;27;44938;-85
2022/01/23 10:24:37;;;;;;;;;20.33;20.33;;;;;4.85;100.00;103225.94;5101264;27;45287;-86
2022/01/23 10:27:03;;;;;;;;;23.33;19.00;;;;;4.74;100.00;103225.97;5120151;27;44719;-84
2022/01/23 10:29:36;;;;;;;;;24.00;18.00;;;;;4.73;100.00;103226.81;5100745;27;44730;-84
2022/01/23 10:32:20;;;;;;;;;21.00;13.25;;;;;4.81;100.00;103225.06;5101481;27;44890;-84
2022/01/23 10:34:55;;;;;;;;;20.00;15.25;;;;;4.90;100.00;103230.31;5101785;27;47159;-84
2022/01/23 10:37:37;;;;;;;;;21.50;13.00;;;;;4.99;100.00;103229.41;5101239;27;44811;-85
2022/01/23 10:40:10;;;;;;;;;16.50;15.00;;;;;5.06;100.00;103225.84;5118256;27;45413;-85
2022/01/23 10:48:01;;;;;;;;;16.00;15.25;;;;;5.21;100.00;103229.31;5120190;27;45428;-84
2022/01/23 10:50:29;;;;;;;;;20.25;16.00;;;;;5.24;100.00;103213.50;5105152;27;45308;-84
2022/01/23 10:52:59;;;;;;;;;17.50;15.50;;;;;5.28;100.00;103213.47;5106431;27;46841;-84
2022/01/23 10:55:34;;;;;;;;;17.00;11.00;;;;;5.26;100.00;103209.06;5104703;27;45740;-85
2022/01/23 10:58:06;;;;;;;;;9.25;9.00;;;;;5.20;100.00;103209.13;5103869;27;45413;-85
2022/01/23 11:00:39;;;;;;;;;18.75;16.00;;;;;5.16;100.00;103213.50;5103131;27;44832;-85
2022/01/23 11:03:14;;;;;;;;;10.75;10.75;;;;;5.18;100.00;103210.91;5102785;27;45407;-84
2022/01/23 11:05:40;;;;;;;;;10.75;9.25;;;;;5.20;100.00;103207.34;5121088;27;45280;-84
2022/01/23 11:08:27;;;;;;;;;14.50;9.75;;;;;5.19;100.00;103210.88;5120825;27;44772;-85
2022/01/23 11:11:01;;;;;;;;;19.25;16.50;;;;;5.18;100.00;103198.59;5118347;27;45441;-84
2022/01/23 11:19:28;;;;;;;;;15.25;13.75;;;;;5.23;100.00;103199.44;5118356;27;44920;-85
2022/01/23 11:21:54;;;;;;;;;17.00;17.00;;;;;5.23;100.00;103193.31;5100477;27;44819;-84
2022/01/23 11:24:21;;;;;;;;;9.25;7.75;;;;;5.24;100.00;103185.38;5119925;27;44881;-84
2022/01/23 11:26:47;;;;;;;;;19.00;16.00;;;;;5.30;100.00;103190.59;5120442;27;45439;-84
2022/01/23 11:29:17;;;;;;;;;16.50;16.50;;;;;5.36;100.00;103187.06;5120800;27;45280;-84
2022/01/23 11:31:43;;;;;;;;;23.67;22.33;;;;;5.29;100.00;103188.84;5120202;27;44762;-85
2022/01/23 11:34:12;;;;;;;;;23.67;19.67;;;;;5.27;100.00;103174.84;5121433;27;44783;-84
2022/01/23 11:36:38;;;;;;;;;21.00;19.00;;;;;5.26;100.00;103172.19;5121613;27;45165;-85
2022/01/23 11:39:12;;;;;;;;;12.75;11.50;;;;;5.22;100.00;103170.44;5122547;27;44866;-85
2022/01/23 11:56:47;;;;;;;;;16.00;12.75;;;;;5.32;100.00;103156.34;4996175;28;45175;-84
2022/01/23 11:59:25;;;;;;;;;17.25;16.00;;;;;5.34;100.00;103154.56;4984273;28;45007;-84
2022/01/23 12:02:13;;;;;;;;;16.00;14.00;;;;;5.32;100.00;103140.53;4997953;28;45527;-84
2022/01/23 12:04:39;;;;;;;;;16.00;14.00;;;;;5.32;100.00;103144.06;4996093;28;45437;-85
2022/01/23 12:07:15;;;;;;;;;17.00;14.25;;;;;5.37;100.00;103144.91;4997052;28;45421;-84
2022/01/23 12:10:02;;;;;;;;;13.00;11.75;;;;;5.39;100.00;103142.25;4995171;28;45242;-84
2022/01/23 12:12:45;;;;;;;;;16.00;13.75;;;;;5.38;100.00;103133.47;4997042;28;45001;-84
2022/01/23 12:18:16;;;;;;;;;10.25;9.00;;;;;5.46;100.00;103130.75;5002917;28;44757;-83
2022/01/23 12:20:43;;;;;;;;;23.75;14.75;;;;;5.48;100.00;103123.72;4996108;28;45338;-84
2022/01/23 12:23:10;;;;;;;;;21.75;16.50;;;;;5.51;100.00;103117.53;5002516;27;45283;-84
2022/01/23 12:25:51;;;;;;;;;16.75;13.00;;;;;5.51;100.00;103118.44;5100732;27;44886;-83
2022/01/23 12:28:28;;;;;;;;;16.75;14.25;;;;;5.52;100.00;103114.03;5103664;27;45717;-84
2022/01/23 12:31:16;;;;;;;;;15.25;13.25;;;;;5.53;100.00;103103.47;5095795;27;47155;-84
2022/01/23 12:33:42;;;;;;;;;18.00;15.25;;;;;5.55;100.00;103111.38;5083979;27;45183;-84
2022/01/23 12:36:31;;;;;;;;;17.33;16.00;;;;;5.52;100.00;103091.19;5097041;27;44696;-84
2022/01/23 12:39:19;;;;;;;;;23.50;20.75;;;;;5.53;100.00;103094.69;5078859;27;45252;-84
2022/01/23 12:41:47;;;;;;;;;19.75;16.50;;;;;5.51;100.00;103099.09;5097474;27;45096;-84
2022/01/23 12:44:26;;;;;;;;;12.50;12.00;;;;;5.50;100.00;103087.66;5097844;27;45471;-84
2022/01/23 12:47:02;;;;;;;;;21.50;18.75;;;;;5.54;100.00;103094.69;5087865;27;44759;-84
2022/01/23 12:49:34;;;;;;;;;26.50;19.25;;;;;5.60;100.00;103081.44;5096582;27;45346;-84
2022/01/23 12:52:07;;;;;;;;;17.75;16.25;;;;;5.63;100.00;103084.06;5097643;27;45197;-85
2022/01/23 12:54:34;;;;;;;;;23.33;19.67;;;;;5.65;100.00;103077.00;5100103;27;44745;-83
2022/01/23 12:57:12;;;;;;;;;19.50;18.00;;;;;5.65;100.00;103078.75;5082741;27;45564;-84
2022/01/23 12:59:38;;;;;;;;;20.33;19.00;;;;;5.63;100.00;103065.59;5104100;27;45403;-83
2022/01/23 13:02:10;;;;;;;;;20.75;15.00;;;;;5.62;100.00;103078.81;5099885;27;45680;-84
2022/01/23 13:04:39;;;;;;;;;22.50;18.00;;;;;5.56;100.00;103066.56;5096675;27;44947;-84
2022/01/23 13:07:16;;;;;;;;;15.25;15.25;;;;;5.52;100.00;103061.31;5096390;27;44931;-84
2022/01/23 13:09:50;;;;;;;;;25.50;18.00;;;;;5.51;100.00;103052.53;5104126;27;44789;-84
2022/01/23 13:32:25;;;;;;;;;22.25;18.75;;;;;5.58;100.00;103034.88;5117922;27;45203;-83
2022/01/23 13:34:57;;;;;;;;;27.00;20.75;;;;;5.60;100.00;103031.34;5116682;27;45230;-84
2022/01/23 13:37:32;;;;;;;;;19.00;17.00;;;;;5.60;100.00;103027.81;5117941;27;44869;-83
2022/01/23 13:40:04;;;;;;;;;26.25;23.00;;;;;5.58;100.00;103026.97;5118076;27;45406;-84
2022/01/23 13:59:23;;;;;;;;;30.00;26.50;;;;;5.68;100.00;102994.34;5057553;28;45331;-83
2022/01/23 14:04:34;;;;;;;;;30.75;22.75;;;;;5.67;100.00;102988.22;5056489;28;45146;-83
2022/01/23 14:06:59;;;;;;;;;19.75;17.75;;;;;5.67;100.00;102976.78;5072345;28;44943;-84
2022/01/23 14:09:26;;;;;;;;;28.00;21.25;;;;;5.68;100.00;102999.63;5056023;28;44921;-84
2022/01/23 14:11:52;;;;;;;;;32.75;26.25;;;;;5.65;100.00;102987.34;5039231;28;45579;-83
2022/01/23 14:14:24;;;;;;;;;22.25;22.25;;;;;5.71;100.00;102981.16;5070097;28;45412;-84
2022/01/23 14:16:52;;;;;;;;;37.67;35.00;;;;;5.72;100.00;102976.75;5056994;28;45214;-84
2022/01/23 14:19:23;;;;;;;;;29.50;22.50;;;;;5.72;100.00;102974.97;5041849;28;44890;-83
2022/01/23 14:21:56;;;;;;;;;40.67;32.67;;;;;5.73;100.00;102971.44;5055888;28;44879;-83
2022/01/23 14:24:28;;;;;;;;;39.67;33.33;;;;;5.71;100.00;102969.72;5058071;28;45461;-84
2022/01/23 14:26:59;;;;;;;;;29.33;22.33;;;;;5.73;100.00;102971.44;5062205;28;45543;-83
2022/01/23 14:29:26;;;;;;;;;24.00;20.25;;;;;5.73;100.00;102963.53;5074903;27;45352;-83
2022/01/23 14:32:08;;;;;;;;;17.00;17.00;;;;;5.65;100.00;102966.25;5084126;27;44698;-83
2022/01/23 14:34:34;;;;;;;;;43.33;33.33;;;;;5.60;100.00;102969.81;5099527;27;44864;-84
2022/01/23 14:37:06;;;;;;;;;30.00;20.33;;;;;5.54;100.00;102967.25;5098098;27;45265;-84
2022/01/23 14:39:32;;;;;;;;;46.67;38.00;;;;;5.51;100.00;102962.00;5098790;27;44883;-84
2022/01/23 14:42:11;;;;;;;;;40.33;30.33;;;;;5.50;100.00;102961.13;5098987;27;44809;-84
2022/01/23 14:44:37;;;;;;;;;24.00;20.33;;;;;5.57;100.00;102964.59;5081045;27;44960;-85
2022/01/23 14:47:03;;;;;;;;;34.67;31.33;;;;;5.63;100.00;102962.75;5098569;27;45484;-84
2022/01/23 14:49:30;;;;;;;;;24.67;24.00;;;;;5.68;100.00;102958.31;5098205;27;44852;-84
2022/01/23 14:51:58;;;;;;;;;31.67;27.67;;;;;5.71;100.00;102954.78;5080334;27;45649;-84